sensor_id;sensor_type;location;lat;lon;timestamp;P1;durP1;ratioP1;P2;durP2;ratioP2
34146;SDS011;20423;49.448;9.056;2023-07-08T00:02:29;3.3;;;2.9;;
34146;SDS011;20423;49.448;9.056;2023-07-08T00:07:42;4.1;;;3.2;;
34146;SDS011;20423;49.448;9.056;2023-07-08T00:12:59;4.2;;;3.4;;
34146;SDS011;20423;49.448;9.056;2023-07-08T00:17:23;4.7;;;3.9;;
34146;SDS011;20423;49.448;9.056;2023-07-08T00:22:09;3.9;;;3.3;;
34146;SDS011;20423;49.448;9.056;2023-07-08T00:27:43;3.6;;;3;;
34146;SDS011;20423;49.448;9.056;2023-07-08T00:32:59;8;;;6.4;;
34146;SDS011;20423;49.448;9.056;2023-07-08T00:38:00;4.4;;;3.5;;
34146;SDS011;20423;49.448;9.056;2023-07-08T00:42:24;3.6;;;2.9;;
34146;SDS011;20423;49.448;9.056;2023-07-08T00:48:11;2.5;;;2.1;;
34146;SDS011;20423;49.448;9.056;2023-07-08T00:52:16;3.5;;;3;;
34146;SDS011;20423;49.448;9.056;2023-07-08T00:58:01;2.8;;;2.7;;
34146;SDS011;20423;49.448;9.056;2023-07-08T01:02:08;3.6;;;2.9;;
34146;SDS011;20423;49.448;9.056;2023-07-08T01:08:01;3.2;;;2.8;;
34146;SDS011;20423;49.448;9.056;2023-07-08T01:12:10;3.8;;;3.3;;
34146;SDS011;20423;49.448;9.056;2023-07-08T01:17:41;6.5;;;5.8;;
34146;SDS011;20423;49.448;9.056;2023-07-08T01:22:07;6.2;;;5.4;;
34146;SDS011;20423;49.448;9.056;2023-07-08T01:27:16;5;;;4;;
34146;SDS011;20423;49.448;9.056;2023-07-08T01:33:01;3.8;;;3.1;;
34146;SDS011;20423;49.448;9.056;2023-07-08T01:37:09;3.2;;;2.9;;
34146;SDS011;20423;49.448;9.056;2023-07-08T01:42:37;4.3;;;3.7;;
34146;SDS011;20423;49.448;9.056;2023-07-08T01:47:59;4.5;;;3.6;;
34146;SDS011;20423;49.448;9.056;2023-07-08T01:53:00;4.3;;;3.4;;
34146;SDS011;20423;49.448;9.056;2023-07-08T01:57:33;3.9;;;3.2;;
34146;SDS011;20423;49.448;9.056;2023-07-08T02:02:33;4.5;;;3.8;;
34146;SDS011;20423;49.448;9.056;2023-07-08T02:07:49;5.8;;;5.3;;
34146;SDS011;20423;49.448;9.056;2023-07-08T02:12:49;5.6;;;5.3;;
34146;SDS011;20423;49.448;9.056;2023-07-08T02:17:07;7.1;;;5.5;;
34146;SDS011;20423;49.448;9.056;2023-07-08T02:22:07;5;;;4.4;;
34146;SDS011;20423;49.448;9.056;2023-07-08T02:28:00;4.8;;;3.8;;
34146;SDS011;20423;49.448;9.056;2023-07-08T02:32:57;3.8;;;2.9;;
34146;SDS011;20423;49.448;9.056;2023-07-08T02:37:34;4;;;3.2;;
34146;SDS011;20423;49.448;9.056;2023-07-08T02:42:57;3.5;;;3.2;;
34146;SDS011;20423;49.448;9.056;2023-07-08T02:47:51;4.4;;;3.2;;
34146;SDS011;20423;49.448;9.056;2023-07-08T02:52:29;3.3;;;2.7;;
34146;SDS011;20423;49.448;9.056;2023-07-08T02:57:21;4.2;;;3.3;;
34146;SDS011;20423;49.448;9.056;2023-07-08T03:02:13;3.9;;;3.4;;
34146;SDS011;20423;49.448;9.056;2023-07-08T03:07:08;4.2;;;3.3;;
34146;SDS011;20423;49.448;9.056;2023-07-08T03:12:08;5;;;3.9;;
34146;SDS011;20423;49.448;9.056;2023-07-08T03:17:57;5.6;;;4.9;;
34146;SDS011;20423;49.448;9.056;2023-07-08T03:22:38;4.1;;;3.5;;
34146;SDS011;20423;49.448;9.056;2023-07-08T03:27:41;6;;;4.7;;
34146;SDS011;20423;49.448;9.056;2023-07-08T03:32:14;5.8;;;4.5;;
34146;SDS011;20423;49.448;9.056;2023-07-08T03:37:08;6.6;;;5.5;;
34146;SDS011;20423;49.448;9.056;2023-07-08T03:42:09;6;;;4.9;;
34146;SDS011;20423;49.448;9.056;2023-07-08T03:47:50;4.5;;;3.6;;
34146;SDS011;20423;49.448;9.056;2023-07-08T03:52:30;9.4;;;7.6;;
34146;SDS011;20423;49.448;9.056;2023-07-08T03:57:32;11.7;;;9.9;;
34146;SDS011;20423;49.448;9.056;2023-07-08T04:02:38;8.2;;;6.8;;
34146;SDS011;20423;49.448;9.056;2023-07-08T04:07:22;20.1;;;17.3;;
34146;SDS011;20423;49.448;9.056;2023-07-08T04:12:32;8.2;;;7.2;;
34146;SDS011;20423;49.448;9.056;2023-07-08T04:17:58;13;;;11.3;;
34146;SDS011;20423;49.448;9.056;2023-07-08T04:22:58;26.1;;;21.1;;
34146;SDS011;20423;49.448;9.056;2023-07-08T04:27:32;16.5;;;13.8;;
34146;SDS011;20423;49.448;9.056;2023-07-08T04:32:32;21.6;;;18.1;;
34146;SDS011;20423;49.448;9.056;2023-07-08T04:37:58;18.6;;;15.2;;
34146;SDS011;20423;49.448;9.056;2023-07-08T04:42:42;14.8;;;12.4;;
34146;SDS011;20423;49.448;9.056;2023-07-08T04:47:08;12.5;;;11.2;;
34146;SDS011;20423;49.448;9.056;2023-07-08T04:52:42;11.8;;;10.1;;
34146;SDS011;20423;49.448;9.056;2023-07-08T04:57:40;14.4;;;12.5;;
34146;SDS011;20423;49.448;9.056;2023-07-08T05:02:50;7.1;;;5.4;;
34146;SDS011;20423;49.448;9.056;2023-07-08T05:07:42;5.6;;;5.4;;
34146;SDS011;20423;49.448;9.056;2023-07-08T05:12:58;15.6;;;12.8;;
34146;SDS011;20423;49.448;9.056;2023-07-08T05:17:22;8;;;6.9;;
34146;SDS011;20423;49.448;9.056;2023-07-08T05:22:58;12;;;11.2;;
34146;SDS011;20423;49.448;9.056;2023-07-08T05:27:52;8.5;;;7.5;;
34146;SDS011;20423;49.448;9.056;2023-07-08T05:32:58;8.7;;;7.6;;
34146;SDS011;20423;49.448;9.056;2023-07-08T05:37:50;14.3;;;11.6;;
34146;SDS011;20423;49.448;9.056;2023-07-08T05:42:42;6.3;;;5;;
34146;SDS011;20423;49.448;9.056;2023-07-08T05:47:34;10;;;8.4;;
34146;SDS011;20423;49.448;9.056;2023-07-08T05:52:08;4.2;;;3.9;;
34146;SDS011;20423;49.448;9.056;2023-07-08T05:57:58;10.7;;;8.7;;
34146;SDS011;20423;49.448;9.056;2023-07-08T06:02:42;8;;;6.4;;
34146;SDS011;20423;49.448;9.056;2023-07-08T06:07:08;3.1;;;2.8;;
34146;SDS011;20423;49.448;9.056;2023-07-08T06:12:58;3;;;2.5;;
34146;SDS011;20423;49.448;9.056;2023-07-08T06:18:00;6.7;;;5.1;;
34146;SDS011;20423;49.448;9.056;2023-07-08T06:22:16;6.4;;;5.4;;
34146;SDS011;20423;49.448;9.056;2023-07-08T06:27:09;6.1;;;5.5;;
34146;SDS011;20423;49.448;9.056;2023-07-08T06:32:52;3.6;;;3.1;;
34146;SDS011;20423;49.448;9.056;2023-07-08T06:37:50;4.7;;;4;;
34146;SDS011;20423;49.448;9.056;2023-07-08T06:42:30;6.7;;;4.9;;
34146;SDS011;20423;49.448;9.056;2023-07-08T06:47:08;7.6;;;6.3;;
34146;SDS011;20423;49.448;9.056;2023-07-08T06:52:58;5.9;;;4.9;;
34146;SDS011;20423;49.448;9.056;2023-07-08T06:57:08;3.6;;;3.3;;
34146;SDS011;20423;49.448;9.056;2023-07-08T07:02:34;4;;;3.4;;
34146;SDS011;20423;49.448;9.056;2023-07-08T07:07:58;4.7;;;4.2;;
34146;SDS011;20423;49.448;9.056;2023-07-08T07:12:58;7.6;;;6.8;;
34146;SDS011;20423;49.448;9.056;2023-07-08T07:17:32;4.6;;;3.8;;
34146;SDS011;20423;49.448;9.056;2023-07-08T07:22:08;8.4;;;7.2;;
34146;SDS011;20423;49.448;9.056;2023-07-08T07:27:16;12.8;;;11;;
34146;SDS011;20423;49.448;9.056;2023-07-08T07:32:08;9.1;;;7.9;;
34146;SDS011;20423;49.448;9.056;2023-07-08T07:37:26;4.5;;;3.4;;
34146;SDS011;20423;49.448;9.056;2023-07-08T07:42:58;5.9;;;5.2;;
34146;SDS011;20423;49.448;9.056;2023-07-08T07:47:36;10.4;;;8.2;;
34146;SDS011;20423;49.448;9.056;2023-07-08T07:52:58;6.4;;;5;;
34146;SDS011;20423;49.448;9.056;2023-07-08T07:57:22;5;;;4.1;;
34146;SDS011;20423;49.448;9.056;2023-07-08T08:02:08;4.9;;;4.2;;
34146;SDS011;20423;49.448;9.056;2023-07-08T08:07:36;7.1;;;6.2;;
34146;SDS011;20423;49.448;9.056;2023-07-08T08:12:34;12;;;10.1;;
34146;SDS011;20423;49.448;9.056;2023-07-08T08:17:30;2.9;;;2.5;;
34146;SDS011;20423;49.448;9.056;2023-07-08T08:22:38;4.3;;;3.8;;
34146;SDS011;20423;49.448;9.056;2023-07-08T08:27:38;4.4;;;3.7;;
34146;SDS011;20423;49.448;9.056;2023-07-08T08:32:22;2.6;;;2;;
34146;SDS011;20423;49.448;9.056;2023-07-08T08:37:08;3;;;2.6;;
34146;SDS011;20423;49.448;9.056;2023-07-08T08:43:00;3.7;;;2.8;;
34146;SDS011;20423;49.448;9.056;2023-07-08T08:47:58;3.2;;;2.5;;
34146;SDS011;20423;49.448;9.056;2023-07-08T08:52:14;3.6;;;2.8;;
34146;SDS011;20423;49.448;9.056;2023-07-08T08:57:15;3.4;;;2.9;;
34146;SDS011;20423;49.448;9.056;2023-07-08T09:02:15;8.1;;;6.4;;
34146;SDS011;20423;49.448;9.056;2023-07-08T09:07:22;6.7;;;5.8;;
34146;SDS011;20423;49.448;9.056;2023-07-08T09:12:32;7.9;;;6.7;;
34146;SDS011;20423;49.448;9.056;2023-07-08T09:17:21;5.5;;;4.3;;
34146;SDS011;20423;49.448;9.056;2023-07-08T09:22:38;3.1;;;2.4;;
34146;SDS011;20423;49.448;9.056;2023-07-08T09:27:42;2.9;;;2.2;;
34146;SDS011;20423;49.448;9.056;2023-07-08T09:32:42;2.9;;;2.2;;
34146;SDS011;20423;49.448;9.056;2023-07-08T09:38:02;4.1;;;3;;
34146;SDS011;20423;49.448;9.056;2023-07-08T09:42:23;8.2;;;7.2;;
34146;SDS011;20423;49.448;9.056;2023-07-08T09:47:56;5.4;;;4.4;;
34146;SDS011;20423;49.448;9.056;2023-07-08T09:52:32;3.4;;;2.8;;
34146;SDS011;20423;49.448;9.056;2023-07-08T09:57:57;3.4;;;2.7;;
34146;SDS011;20423;49.448;9.056;2023-07-08T10:02:49;2.8;;;2.4;;
34146;SDS011;20423;49.448;9.056;2023-07-08T10:07:34;5.5;;;3.8;;
34146;SDS011;20423;49.448;9.056;2023-07-08T10:12:35;4.4;;;3.4;;
34146;SDS011;20423;49.448;9.056;2023-07-08T10:17:08;13.5;;;10.7;;
34146;SDS011;20423;49.448;9.056;2023-07-08T10:23:02;10.5;;;9.2;;
34146;SDS011;20423;49.448;9.056;2023-07-08T10:27:35;4.5;;;3.7;;
34146;SDS011;20423;49.448;9.056;2023-07-08T10:32:08;5;;;4.5;;
34146;SDS011;20423;49.448;9.056;2023-07-08T10:38:02;7.6;;;6.6;;
34146;SDS011;20423;49.448;9.056;2023-07-08T10:43:02;10.5;;;8.8;;
34146;SDS011;20423;49.448;9.056;2023-07-08T10:47:20;7.5;;;6.3;;
34146;SDS011;20423;49.448;9.056;2023-07-08T10:52:22;2.7;;;2.2;;
34146;SDS011;20423;49.448;9.056;2023-07-08T10:57:41;5.3;;;4.2;;
34146;SDS011;20423;49.448;9.056;2023-07-08T11:02:56;4.7;;;3.6;;
34146;SDS011;20423;49.448;9.056;2023-07-08T11:07:10;7.3;;;5.6;;
34146;SDS011;20423;49.448;9.056;2023-07-08T11:12:18;10.3;;;7.7;;
34146;SDS011;20423;49.448;9.056;2023-07-08T11:17:59;4.6;;;3.7;;
34146;SDS011;20423;49.448;9.056;2023-07-08T11:22:16;11.8;;;9.9;;
34146;SDS011;20423;49.448;9.056;2023-07-08T11:27:35;10.1;;;8.2;;
34146;SDS011;20423;49.448;9.056;2023-07-08T11:32:42;3;;;2.8;;
34146;SDS011;20423;49.448;9.056;2023-07-08T11:37:50;3;;;2.5;;
34146;SDS011;20423;49.448;9.056;2023-07-08T11:43:00;3.9;;;2.6;;
34146;SDS011;20423;49.448;9.056;2023-07-08T11:47:10;5.5;;;4.6;;
34146;SDS011;20423;49.448;9.056;2023-07-08T11:52:08;7.9;;;6.5;;
34146;SDS011;20423;49.448;9.056;2023-07-08T11:57:17;4.6;;;3.6;;
34146;SDS011;20423;49.448;9.056;2023-07-08T12:02:26;5.6;;;4.9;;
34146;SDS011;20423;49.448;9.056;2023-07-08T12:07:58;4.5;;;3.5;;
34146;SDS011;20423;49.448;9.056;2023-07-08T12:12:40;3.9;;;3.3;;
34146;SDS011;20423;49.448;9.056;2023-07-08T12:17:59;3.2;;;2.5;;
34146;SDS011;20423;49.448;9.056;2023-07-08T12:22:16;6.5;;;5.4;;
34146;SDS011;20423;49.448;9.056;2023-07-08T12:27:09;8.2;;;6.7;;
34146;SDS011;20423;49.448;9.056;2023-07-08T12:32:30;4.7;;;3.6;;
34146;SDS011;20423;49.448;9.056;2023-07-08T12:37:32;3.4;;;2.9;;
34146;SDS011;20423;49.448;9.056;2023-07-08T12:42:30;5.4;;;4.3;;
34146;SDS011;20423;49.448;9.056;2023-07-08T12:47:38;4.5;;;3.4;;
34146;SDS011;20423;49.448;9.056;2023-07-08T12:52:38;2.2;;;1.9;;
34146;SDS011;20423;49.448;9.056;2023-07-08T12:57:08;2.2;;;1.5;;
34146;SDS011;20423;49.448;9.056;2023-07-08T13:02:10;1.9;;;0.9;;
34146;SDS011;20423;49.448;9.056;2023-07-08T13:07:56;1.8;;;1.1;;
34146;SDS011;20423;49.448;9.056;2023-07-08T13:12:59;2;;;1.8;;
34146;SDS011;20423;49.448;9.056;2023-07-08T13:17:58;2.7;;;2.3;;
34146;SDS011;20423;49.448;9.056;2023-07-08T13:22:22;6;;;4.7;;
34146;SDS011;20423;49.448;9.056;2023-07-08T13:27:58;4.1;;;3.1;;
34146;SDS011;20423;49.448;9.056;2023-07-08T13:32:08;3.5;;;2.8;;
34146;SDS011;20423;49.448;9.056;2023-07-08T13:37:09;2;;;1.6;;
34146;SDS011;20423;49.448;9.056;2023-07-08T13:42:46;1.8;;;1.2;;
34146;SDS011;20423;49.448;9.056;2023-07-08T13:48:03;2.1;;;1.3;;
34146;SDS011;20423;49.448;9.056;2023-07-08T13:52:53;9.1;;;7.4;;
34146;SDS011;20423;49.448;9.056;2023-07-08T13:57:42;2.1;;;1.7;;
34146;SDS011;20423;49.448;9.056;2023-07-08T14:02:58;1.8;;;1.6;;
34146;SDS011;20423;49.448;9.056;2023-07-08T14:07:23;3.3;;;2.9;;
34146;SDS011;20423;49.448;9.056;2023-07-08T14:12:58;5.4;;;4.2;;
34146;SDS011;20423;49.448;9.056;2023-07-08T14:17:34;6.6;;;5;;
34146;SDS011;20423;49.448;9.056;2023-07-08T14:22:58;6.5;;;5.8;;
34146;SDS011;20423;49.448;9.056;2023-07-08T14:27:50;8.9;;;7.8;;
34146;SDS011;20423;49.448;9.056;2023-07-08T14:32:42;9.4;;;7.6;;
34146;SDS011;20423;49.448;9.056;2023-07-08T14:37:16;6;;;4.9;;
34146;SDS011;20423;49.448;9.056;2023-07-08T14:42:17;6.9;;;6.2;;
34146;SDS011;20423;49.448;9.056;2023-07-08T14:47:58;9.7;;;7.2;;
34146;SDS011;20423;49.448;9.056;2023-07-08T14:52:34;9.8;;;8.2;;
34146;SDS011;20423;49.448;9.056;2023-07-08T14:57:31;9.6;;;7.8;;
34146;SDS011;20423;49.448;9.056;2023-07-08T15:02:58;6.2;;;5.6;;
34146;SDS011;20423;49.448;9.056;2023-07-08T15:07:52;9.4;;;7.9;;
34146;SDS011;20423;49.448;9.056;2023-07-08T15:12:26;6.4;;;5.3;;
34146;SDS011;20423;49.448;9.056;2023-07-08T15:17:16;8.2;;;7.6;;
34146;SDS011;20423;49.448;9.056;2023-07-08T15:22:50;5.5;;;4.6;;
34146;SDS011;20423;49.448;9.056;2023-07-08T15:27:32;3.2;;;2.5;;
34146;SDS011;20423;49.448;9.056;2023-07-08T15:32:30;2.8;;;2.3;;
34146;SDS011;20423;49.448;9.056;2023-07-08T15:37:34;3.3;;;2.7;;
34146;SDS011;20423;49.448;9.056;2023-07-08T15:42:59;5;;;4.3;;
34146;SDS011;20423;49.448;9.056;2023-07-08T15:47:26;5;;;4.2;;
34146;SDS011;20423;49.448;9.056;2023-07-08T15:52:32;5.7;;;4.1;;
34146;SDS011;20423;49.448;9.056;2023-07-08T15:57:57;9;;;6.7;;
34146;SDS011;20423;49.448;9.056;2023-07-08T16:02:56;7.1;;;5.8;;
34146;SDS011;20423;49.448;9.056;2023-07-08T16:07:22;7.1;;;5.3;;
34146;SDS011;20423;49.448;9.056;2023-07-08T16:12:22;7.9;;;6.3;;
34146;SDS011;20423;49.448;9.056;2023-07-08T16:17:22;4;;;3.4;;
34146;SDS011;20423;49.448;9.056;2023-07-08T16:22:26;6.8;;;5.5;;
34146;SDS011;20423;49.448;9.056;2023-07-08T16:27:16;12.2;;;10.4;;
34146;SDS011;20423;49.448;9.056;2023-07-08T16:32:58;11.3;;;10.1;;
34146;SDS011;20423;49.448;9.056;2023-07-08T16:37:45;9.1;;;8.3;;
34146;SDS011;20423;49.448;9.056;2023-07-08T16:42:58;13.4;;;11.9;;
34146;SDS011;20423;49.448;9.056;2023-07-08T16:47:16;8.8;;;7.6;;
34146;SDS011;20423;49.448;9.056;2023-07-08T16:52:14;9.2;;;7.7;;
34146;SDS011;20423;49.448;9.056;2023-07-08T16:57:08;6.4;;;5.4;;
34146;SDS011;20423;49.448;9.056;2023-07-08T17:02:10;8.1;;;6.8;;
34146;SDS011;20423;49.448;9.056;2023-07-08T17:07:30;7.3;;;6.4;;
34146;SDS011;20423;49.448;9.056;2023-07-08T17:12:40;5.6;;;4.8;;
34146;SDS011;20423;49.448;9.056;2023-07-08T17:15:15;5.57;;;3.05;;
34146;SDS011;20423;49.448;9.056;2023-07-08T17:17:34;7.8;;;6.4;;
34146;SDS011;20423;49.448;9.056;2023-07-08T17:17:48;8.07;;;3.03;;
34146;SDS011;20423;49.448;9.056;2023-07-08T17:20:52;4.22;;;2.75;;
34146;SDS011;20423;49.448;9.056;2023-07-08T17:22:08;9;;;7.6;;
34146;SDS011;20423;49.448;9.056;2023-07-08T17:23:14;10.70;;;3.42;;
34146;SDS011;20423;49.448;9.056;2023-07-08T17:25:42;4.95;;;2.65;;
34146;SDS011;20423;49.448;9.056;2023-07-08T17:27:08;7.5;;;7.1;;
34146;SDS011;20423;49.448;9.056;2023-07-08T17:28:09;9.95;;;3.40;;
34146;SDS011;20423;49.448;9.056;2023-07-08T17:30:35;9.00;;;3.55;;
34146;SDS011;20423;49.448;9.056;2023-07-08T17:32:42;5.1;;;4.6;;
34146;SDS011;20423;49.448;9.056;2023-07-08T17:33:04;11.18;;;3.97;;
34146;SDS011;20423;49.448;9.056;2023-07-08T17:35:30;7.88;;;3.72;;
34146;SDS011;20423;49.448;9.056;2023-07-08T17:37:56;3.6;;;2.4;;
34146;SDS011;20423;49.448;9.056;2023-07-08T17:42:58;1.8;;;1.3;;
34146;SDS011;20423;49.448;9.056;2023-07-08T17:47:22;2.4;;;1.9;;
34146;SDS011;20423;49.448;9.056;2023-07-08T17:52:58;1.9;;;1.4;;
34146;SDS011;20423;49.448;9.056;2023-07-08T17:57:08;2;;;1.7;;
34146;SDS011;20423;49.448;9.056;2023-07-08T18:02:16;1.6;;;1.3;;
34146;SDS011;20423;49.448;9.056;2023-07-08T18:07:43;2.8;;;1.9;;
34146;SDS011;20423;49.448;9.056;2023-07-08T18:12:38;2.9;;;2.3;;
34146;SDS011;20423;49.448;9.056;2023-07-08T18:17:51;2.3;;;2.1;;
34146;SDS011;20423;49.448;9.056;2023-07-08T18:22:10;6;;;4.9;;
34146;SDS011;20423;49.448;9.056;2023-07-08T18:27:38;8.2;;;6.7;;
34146;SDS011;20423;49.448;9.056;2023-07-08T18:32:08;7.5;;;6.4;;
34146;SDS011;20423;49.448;9.056;2023-07-08T18:37:44;7.1;;;6.3;;
34146;SDS011;20423;49.448;9.056;2023-07-08T18:42:57;12;;;9.8;;
34146;SDS011;20423;49.448;9.056;2023-07-08T18:47:58;15.3;;;13.4;;
34146;SDS011;20423;49.448;9.056;2023-07-08T18:52:32;19;;;16.7;;
34146;SDS011;20423;49.448;9.056;2023-07-08T18:57:42;19.5;;;16.1;;
34146;SDS011;20423;49.448;9.056;2023-07-08T19:02:25;16.8;;;14.5;;
34146;SDS011;20423;49.448;9.056;2023-07-08T19:07:16;13.7;;;11.9;;
34146;SDS011;20423;49.448;9.056;2023-07-08T19:12:58;12.4;;;10.5;;
34146;SDS011;20423;49.448;9.056;2023-07-08T19:17:32;11.7;;;9.5;;
34146;SDS011;20423;49.448;9.056;2023-07-08T19:22:30;12.6;;;10.7;;
34146;SDS011;20423;49.448;9.056;2023-07-08T19:27:58;13.7;;;12;;
34146;SDS011;20423;49.448;9.056;2023-07-08T19:33:01;20.5;;;18.2;;
34146;SDS011;20423;49.448;9.056;2023-07-08T19:37:17;24.3;;;21.5;;
34146;SDS011;20423;49.448;9.056;2023-07-08T19:42:10;21.2;;;19.1;;
34146;SDS011;20423;49.448;9.056;2023-07-08T19:47:28;16.3;;;13.4;;
34146;SDS011;20423;49.448;9.056;2023-07-08T19:52:50;12.6;;;11;;
34146;SDS011;20423;49.448;9.056;2023-07-08T19:57:37;9.3;;;8.3;;
34146;SDS011;20423;49.448;9.056;2023-07-08T20:02:22;7.9;;;6.3;;
34146;SDS011;20423;49.448;9.056;2023-07-08T20:08:01;5.7;;;4.8;;
34146;SDS011;20423;49.448;9.056;2023-07-08T20:12:34;4.4;;;4.2;;
34146;SDS011;20423;49.448;9.056;2023-07-08T20:17:16;3.5;;;3;;
34146;SDS011;20423;49.448;9.056;2023-07-08T20:22:58;2.6;;;2.3;;
34146;SDS011;20423;49.448;9.056;2023-07-08T20:27:52;3.5;;;2.8;;
34146;SDS011;20423;49.448;9.056;2023-07-08T20:32:42;5.8;;;4.9;;
34146;SDS011;20423;49.448;9.056;2023-07-08T20:37:16;4.5;;;3.9;;
34146;SDS011;20423;49.448;9.056;2023-07-08T20:42:58;3.5;;;3;;
34146;SDS011;20423;49.448;9.056;2023-07-08T20:47:16;3.8;;;3;;
34146;SDS011;20423;49.448;9.056;2023-07-08T20:52:16;2.7;;;2.5;;
34146;SDS011;20423;49.448;9.056;2023-07-08T20:57:28;3.3;;;2.6;;
34146;SDS011;20423;49.448;9.056;2023-07-08T21:02:40;3.1;;;2.3;;
34146;SDS011;20423;49.448;9.056;2023-07-08T21:08:00;2.4;;;1.8;;
34146;SDS011;20423;49.448;9.056;2023-07-08T21:12:22;3.1;;;2.7;;
34146;SDS011;20423;49.448;9.056;2023-07-08T21:17:15;3.5;;;2.7;;
34146;SDS011;20423;49.448;9.056;2023-07-08T21:22:09;4.4;;;3.8;;
34146;SDS011;20423;49.448;9.056;2023-07-08T21:27:13;4.8;;;3.7;;
34146;SDS011;20423;49.448;9.056;2023-07-08T21:32:32;3.3;;;3;;
34146;SDS011;20423;49.448;9.056;2023-07-08T21:37:39;4.5;;;3.8;;
34146;SDS011;20423;49.448;9.056;2023-07-08T21:42:58;4.1;;;3.2;;
34146;SDS011;20423;49.448;9.056;2023-07-08T21:47:08;4.3;;;3.4;;
34146;SDS011;20423;49.448;9.056;2023-07-08T21:52:08;4.4;;;3.6;;
34146;SDS011;20423;49.448;9.056;2023-07-08T21:57:42;4.6;;;3.6;;
34146;SDS011;20423;49.448;9.056;2023-07-08T22:03:00;3.9;;;3.6;;
34146;SDS011;20423;49.448;9.056;2023-07-08T22:07:59;3.9;;;3.1;;
34146;SDS011;20423;49.448;9.056;2023-07-08T22:12:22;3.6;;;2.7;;
34146;SDS011;20423;49.448;9.056;2023-07-08T22:18:00;3.3;;;2.9;;
34146;SDS011;20423;49.448;9.056;2023-07-08T22:22:17;4.3;;;3.6;;
34146;SDS011;20423;49.448;9.056;2023-07-08T22:27:08;3.7;;;3.1;;
34146;SDS011;20423;49.448;9.056;2023-07-08T22:32:42;3.6;;;3;;
34146;SDS011;20423;49.448;9.056;2023-07-08T22:37:16;3.8;;;3.2;;
34146;SDS011;20423;49.448;9.056;2023-07-08T22:42:52;3.9;;;3.2;;
34146;SDS011;20423;49.448;9.056;2023-07-08T22:47:43;3.2;;;2.9;;
34146;SDS011;20423;49.448;9.056;2023-07-08T22:52:58;3.4;;;3;;
34146;SDS011;20423;49.448;9.056;2023-07-08T22:57:08;3.6;;;3.3;;
34146;SDS011;20423;49.448;9.056;2023-07-08T23:02:58;4.7;;;3.9;;
34146;SDS011;20423;49.448;9.056;2023-07-08T23:07:08;4.8;;;4;;
34146;SDS011;20423;49.448;9.056;2023-07-08T23:12:58;4.7;;;3.9;;
34146;SDS011;20423;49.448;9.056;2023-07-08T23:17:50;4;;;3.1;;
34146;SDS011;20423;49.448;9.056;2023-07-08T23:22:42;4.6;;;3.5;;
34146;SDS011;20423;49.448;9.056;2023-07-08T23:27:08;4.3;;;3.6;;
34146;SDS011;20423;49.448;9.056;2023-07-08T23:32:09;4.3;;;3.3;;
34146;SDS011;20423;49.448;9.056;2023-07-08T23:38:00;3.7;;;3;;
34146;SDS011;20423;49.448;9.056;2023-07-08T23:42:26;2.7;;;2.2;;
34146;SDS011;20423;49.448;9.056;2023-07-08T23:47:30;4.5;;;3.6;;
34146;SDS011;20423;49.448;9.056;2023-07-08T23:52:58;2.3;;;2.2;;
34146;SDS011;20423;49.448;9.056;2023-07-08T23:57:58;2.4;;;2.2;;
